This is the latest recevied weather packets stored in our database for station/object DG3GAI-6. If no packets are shown the sender has not sent any weather packets the latest 10 day(s).
| Time | Temp. | Humidity | Pressure | Rain* | Wind** | Luminosity | Snow |
|---|---|---|---|---|---|---|---|
| 1777797134 | 15.56° C | 55% | 1020 hPa | - | - | - | - |
| 1777795327 | 15° C | 60% | 1020 hPa | - | - | - | - |
| 1777793520 | 14.44° C | 64% | 1020 hPa | - | - | - | - |
| 1777791712 | 13.89° C | 73% | 1020 hPa | - | - | - | - |
| 1777788098 | 13.33° C | 75% | 1020 hPa | - | - | - | - |
| 1777786290 | 13.33° C | 72% | 1019 hPa | - | - | - | - |
| 1777784483 | 12.78° C | 70% | 1019 hPa | - | - | - | - |
| 1777782676 | 13.33° C | 68% | 1019 hPa | - | - | - | - |
| 1777780869 | 13.33° C | 68% | 1019 hPa | - | - | - | - |
| 1777779061 | 13.33° C | 68% | 1020 hPa | - | - | - | - |
| 1777777254 | 13.33° C | 67% | 1020 hPa | - | - | - | - |
| 1777775447 | 13.89° C | 66% | 1020 hPa | - | - | - | - |
| 1777773640 | 13.89° C | 66% | 1020 hPa | - | - | - | - |
| 1777771832 | 13.89° C | 65% | 1020 hPa | - | - | - | - |
| 1777770025 | 13.89° C | 65% | 1020 hPa | - | - | - | - |
| 1777768218 | 14.44° C | 64% | 1020 hPa | - | - | - | - |
| 1777766410 | 14.44° C | 63% | 1020 hPa | - | - | - | - |
| 1777764603 | 14.44° C | 62% | 1021 hPa | - | - | - | - |
| 1777762796 | 15° C | 62% | 1021 hPa | - | - | - | - |
| 1777760989 | 15° C | 61% | 1021 hPa | - | - | - | - |
| 1777759181 | 15.56° C | 60% | 1021 hPa | - | - | - | - |
| 1777757374 | 15.56° C | 60% | 1021 hPa | - | - | - | - |
| 1777755567 | 15.56° C | 60% | 1021 hPa | - | - | - | - |
| 1777753760 | 15.56° C | 58% | 1021 hPa | - | - | - | - |
| 1777751952 | 16.11° C | 57% | 1021 hPa | - | - | - | - |
* Rain since midnight (hover to see other rain measurements)
** Current wind speed in m/s (hover to see current wind gust speed)